sensor_id;sensor_type;location;lat;lon;timestamp;P1;durP1;ratioP1;P2;durP2;ratioP2
19235;SDS011;9752;54.270;12.470;2023-01-28T00:03:55;7.63;;;7.00;;
19235;SDS011;9752;54.270;12.470;2023-01-28T00:08:58;7.80;;;7.40;;
19235;SDS011;9752;54.270;12.470;2023-01-28T00:13:59;8.17;;;7.80;;
19235;SDS011;9752;54.270;12.470;2023-01-28T00:19:03;8.27;;;7.77;;
19235;SDS011;9752;54.270;12.470;2023-01-28T00:24:07;8.37;;;7.77;;
19235;SDS011;9752;54.270;12.470;2023-01-28T00:29:09;7.77;;;7.37;;
19235;SDS011;9752;54.270;12.470;2023-01-28T00:34:11;8.40;;;8.10;;
19235;SDS011;9752;54.270;12.470;2023-01-28T00:39:15;11.00;;;10.50;;
19235;SDS011;9752;54.270;12.470;2023-01-28T00:44:17;11.20;;;10.70;;
19235;SDS011;9752;54.270;12.470;2023-01-28T00:49:19;10.17;;;9.57;;
19235;SDS011;9752;54.270;12.470;2023-01-28T00:54:22;9.30;;;8.90;;
19235;SDS011;9752;54.270;12.470;2023-01-28T00:59:24;9.53;;;8.87;;
19235;SDS011;9752;54.270;12.470;2023-01-28T01:04:27;9.10;;;8.60;;
19235;SDS011;9752;54.270;12.470;2023-01-28T01:09:38;9.90;;;9.10;;
19235;SDS011;9752;54.270;12.470;2023-01-28T01:14:39;9.20;;;8.27;;
19235;SDS011;9752;54.270;12.470;2023-01-28T01:19:41;8.20;;;7.73;;
19235;SDS011;9752;54.270;12.470;2023-01-28T01:24:44;8.67;;;8.10;;
19235;SDS011;9752;54.270;12.470;2023-01-28T01:29:48;8.77;;;8.17;;
19235;SDS011;9752;54.270;12.470;2023-01-28T01:34:50;8.70;;;8.30;;
19235;SDS011;9752;54.270;12.470;2023-01-28T01:39:53;8.93;;;8.53;;
19235;SDS011;9752;54.270;12.470;2023-01-28T01:44:57;9.10;;;8.50;;
19235;SDS011;9752;54.270;12.470;2023-01-28T01:50:00;9.13;;;8.60;;
19235;SDS011;9752;54.270;12.470;2023-01-28T01:55:10;8.47;;;8.07;;
19235;SDS011;9752;54.270;12.470;2023-01-28T02:00:14;9.10;;;8.70;;
19235;SDS011;9752;54.270;12.470;2023-01-28T02:05:21;9.10;;;8.70;;
19235;SDS011;9752;54.270;12.470;2023-01-28T02:10:25;9.30;;;8.73;;
19235;SDS011;9752;54.270;12.470;2023-01-28T02:15:26;8.70;;;8.17;;
19235;SDS011;9752;54.270;12.470;2023-01-28T02:20:31;9.10;;;8.70;;
19235;SDS011;9752;54.270;12.470;2023-01-28T02:26:04;9.20;;;8.67;;
19235;SDS011;9752;54.270;12.470;2023-01-28T02:31:22;9.90;;;9.30;;
19235;SDS011;9752;54.270;12.470;2023-01-28T02:36:28;9.30;;;8.87;;
19235;SDS011;9752;54.270;12.470;2023-01-28T02:41:41;9.03;;;8.63;;
19235;SDS011;9752;54.270;12.470;2023-01-28T02:46:51;9.30;;;8.90;;
19235;SDS011;9752;54.270;12.470;2023-01-28T02:52:15;9.63;;;8.90;;
19235;SDS011;9752;54.270;12.470;2023-01-28T02:57:42;8.73;;;8.43;;
19235;SDS011;9752;54.270;12.470;2023-01-28T03:02:57;8.53;;;7.77;;
19235;SDS011;9752;54.270;12.470;2023-01-28T03:08:03;7.80;;;7.40;;
19235;SDS011;9752;54.270;12.470;2023-01-28T03:13:27;7.60;;;7.00;;
19235;SDS011;9752;54.270;12.470;2023-01-28T03:18:48;6.20;;;6.00;;
19235;SDS011;9752;54.270;12.470;2023-01-28T03:24:10;6.50;;;6.20;;
19235;SDS011;9752;54.270;12.470;2023-01-28T03:29:38;6.90;;;6.53;;
19235;SDS011;9752;54.270;12.470;2023-01-28T03:35:01;7.00;;;6.60;;
19235;SDS011;9752;54.270;12.470;2023-01-28T03:40:23;6.63;;;6.33;;
19235;SDS011;9752;54.270;12.470;2023-01-28T03:45:25;7.73;;;6.80;;
19235;SDS011;9752;54.270;12.470;2023-01-28T03:50:28;7.40;;;7.00;;
19235;SDS011;9752;54.270;12.470;2023-01-28T03:55:34;7.40;;;7.00;;
19235;SDS011;9752;54.270;12.470;2023-01-28T04:00:36;7.10;;;6.70;;
19235;SDS011;9752;54.270;12.470;2023-01-28T04:05:43;7.20;;;6.80;;
19235;SDS011;9752;54.270;12.470;2023-01-28T04:10:47;6.90;;;6.47;;
19235;SDS011;9752;54.270;12.470;2023-01-28T04:16:02;7.40;;;6.70;;
19235;SDS011;9752;54.270;12.470;2023-01-28T04:21:11;6.77;;;6.47;;
19235;SDS011;9752;54.270;12.470;2023-01-28T04:26:13;7.07;;;6.67;;
19235;SDS011;9752;54.270;12.470;2023-01-28T04:31:14;8.23;;;7.80;;
19235;SDS011;9752;54.270;12.470;2023-01-28T04:36:38;7.90;;;7.40;;
19235;SDS011;9752;54.270;12.470;2023-01-28T04:42:14;7.77;;;7.37;;
19235;SDS011;9752;54.270;12.470;2023-01-28T04:47:31;7.90;;;7.10;;
19235;SDS011;9752;54.270;12.470;2023-01-28T04:52:46;7.23;;;6.80;;
19235;SDS011;9752;54.270;12.470;2023-01-28T04:58:00;8.10;;;7.40;;
19235;SDS011;9752;54.270;12.470;2023-01-28T05:03:03;7.33;;;6.83;;
19235;SDS011;9752;54.270;12.470;2023-01-28T05:08:07;7.27;;;6.77;;
19235;SDS011;9752;54.270;12.470;2023-01-28T05:13:09;9.60;;;6.60;;
19235;SDS011;9752;54.270;12.470;2023-01-28T05:18:12;6.90;;;6.37;;
19235;SDS011;9752;54.270;12.470;2023-01-28T05:23:21;7.00;;;6.50;;
19235;SDS011;9752;54.270;12.470;2023-01-28T05:28:25;7.50;;;6.90;;
19235;SDS011;9752;54.270;12.470;2023-01-28T05:33:27;6.73;;;6.13;;
19235;SDS011;9752;54.270;12.470;2023-01-28T05:38:30;7.53;;;6.60;;
19235;SDS011;9752;54.270;12.470;2023-01-28T05:43:32;7.50;;;6.93;;
19235;SDS011;9752;54.270;12.470;2023-01-28T05:48:57;6.57;;;5.97;;
19235;SDS011;9752;54.270;12.470;2023-01-28T05:54:19;7.13;;;6.73;;
19235;SDS011;9752;54.270;12.470;2023-01-28T05:59:21;6.50;;;6.00;;
19235;SDS011;9752;54.270;12.470;2023-01-28T06:04:26;7.17;;;6.67;;
19235;SDS011;9752;54.270;12.470;2023-01-28T06:09:29;6.50;;;6.10;;
19235;SDS011;9752;54.270;12.470;2023-01-28T06:14:31;7.00;;;6.67;;
19235;SDS011;9752;54.270;12.470;2023-01-28T06:20:04;7.77;;;7.07;;
19235;SDS011;9752;54.270;12.470;2023-01-28T06:25:11;8.20;;;7.50;;
19235;SDS011;9752;54.270;12.470;2023-01-28T06:30:13;7.40;;;7.00;;
19235;SDS011;9752;54.270;12.470;2023-01-28T06:35:14;8.30;;;7.60;;
19235;SDS011;9752;54.270;12.470;2023-01-28T06:40:18;8.77;;;8.10;;
19235;SDS011;9752;54.270;12.470;2023-01-28T06:45:20;7.37;;;6.97;;
19235;SDS011;9752;54.270;12.470;2023-01-28T06:50:21;7.27;;;6.77;;
19235;SDS011;9752;54.270;12.470;2023-01-28T06:55:24;7.13;;;6.67;;
19235;SDS011;9752;54.270;12.470;2023-01-28T07:00:26;6.20;;;5.90;;
19235;SDS011;9752;54.270;12.470;2023-01-28T07:05:28;6.87;;;6.37;;
19235;SDS011;9752;54.270;12.470;2023-01-28T07:10:31;7.20;;;6.70;;
19235;SDS011;9752;54.270;12.470;2023-01-28T07:15:33;8.47;;;7.70;;
19235;SDS011;9752;54.270;12.470;2023-01-28T07:20:34;8.70;;;7.77;;
19235;SDS011;9752;54.270;12.470;2023-01-28T07:25:38;8.03;;;7.40;;
19235;SDS011;9752;54.270;12.470;2023-01-28T07:30:39;8.43;;;7.53;;
19235;SDS011;9752;54.270;12.470;2023-01-28T07:35:41;7.67;;;7.07;;
19235;SDS011;9752;54.270;12.470;2023-01-28T07:40:45;8.70;;;7.83;;
19235;SDS011;9752;54.270;12.470;2023-01-28T07:45:47;8.27;;;7.57;;
19235;SDS011;9752;54.270;12.470;2023-01-28T07:50:48;7.93;;;7.03;;
19235;SDS011;9752;54.270;12.470;2023-01-28T07:55:56;8.73;;;8.10;;
19235;SDS011;9752;54.270;12.470;2023-01-28T08:00:59;7.90;;;7.40;;
19235;SDS011;9752;54.270;12.470;2023-01-28T08:06:02;8.10;;;7.37;;
19235;SDS011;9752;54.270;12.470;2023-01-28T08:11:09;7.83;;;7.13;;
19235;SDS011;9752;54.270;12.470;2023-01-28T08:16:11;7.93;;;7.20;;
19235;SDS011;9752;54.270;12.470;2023-01-28T08:21:12;8.40;;;7.60;;
19235;SDS011;9752;54.270;12.470;2023-01-28T08:26:15;7.80;;;7.27;;
19235;SDS011;9752;54.270;12.470;2023-01-28T08:31:17;7.63;;;6.93;;
19235;SDS011;9752;54.270;12.470;2023-01-28T08:36:19;7.10;;;6.57;;
19235;SDS011;9752;54.270;12.470;2023-01-28T08:41:22;7.77;;;7.17;;
19235;SDS011;9752;54.270;12.470;2023-01-28T08:46:24;6.60;;;6.20;;
19235;SDS011;9752;54.270;12.470;2023-01-28T08:51:26;6.77;;;6.37;;
19235;SDS011;9752;54.270;12.470;2023-01-28T08:56:29;6.90;;;6.30;;
19235;SDS011;9752;54.270;12.470;2023-01-28T09:01:31;7.53;;;6.93;;
19235;SDS011;9752;54.270;12.470;2023-01-28T09:06:33;7.20;;;6.60;;
19235;SDS011;9752;54.270;12.470;2023-01-28T09:11:36;7.00;;;6.50;;
19235;SDS011;9752;54.270;12.470;2023-01-28T09:16:38;8.00;;;7.30;;
19235;SDS011;9752;54.270;12.470;2023-01-28T09:21:39;8.17;;;7.43;;
19235;SDS011;9752;54.270;12.470;2023-01-28T09:26:42;7.97;;;7.50;;
19235;SDS011;9752;54.270;12.470;2023-01-28T09:31:44;15.90;;;7.53;;
19235;SDS011;9752;54.270;12.470;2023-01-28T09:36:46;7.43;;;6.83;;
19235;SDS011;9752;54.270;12.470;2023-01-28T09:41:51;8.40;;;7.57;;
19235;SDS011;9752;54.270;12.470;2023-01-28T09:47:03;8.60;;;7.87;;
19235;SDS011;9752;54.270;12.470;2023-01-28T09:52:10;8.50;;;8.00;;
19235;SDS011;9752;54.270;12.470;2023-01-28T09:57:18;8.17;;;7.40;;
19235;SDS011;9752;54.270;12.470;2023-01-28T10:02:26;7.77;;;7.17;;
19235;SDS011;9752;54.270;12.470;2023-01-28T10:07:40;8.40;;;7.70;;
19235;SDS011;9752;54.270;12.470;2023-01-28T10:12:59;8.23;;;7.63;;
19235;SDS011;9752;54.270;12.470;2023-01-28T10:18:12;8.57;;;7.97;;
19235;SDS011;9752;54.270;12.470;2023-01-28T10:23:15;8.93;;;8.43;;
19235;SDS011;9752;54.270;12.470;2023-01-28T10:28:22;9.37;;;8.70;;
19235;SDS011;9752;54.270;12.470;2023-01-28T10:33:28;9.97;;;9.37;;
19235;SDS011;9752;54.270;12.470;2023-01-28T10:38:33;10.10;;;9.53;;
19235;SDS011;9752;54.270;12.470;2023-01-28T10:43:38;10.07;;;9.47;;
19235;SDS011;9752;54.270;12.470;2023-01-28T10:48:43;8.43;;;7.90;;
19235;SDS011;9752;54.270;12.470;2023-01-28T10:53:48;9.37;;;8.77;;
19235;SDS011;9752;54.270;12.470;2023-01-28T10:58:59;10.33;;;9.03;;
19235;SDS011;9752;54.270;12.470;2023-01-28T11:04:01;10.53;;;9.83;;
19235;SDS011;9752;54.270;12.470;2023-01-28T11:09:18;9.27;;;8.77;;
19235;SDS011;9752;54.270;12.470;2023-01-28T11:14:26;9.53;;;9.03;;
19235;SDS011;9752;54.270;12.470;2023-01-28T11:19:30;9.10;;;8.50;;
19235;SDS011;9752;54.270;12.470;2023-01-28T11:24:35;10.20;;;9.30;;
19235;SDS011;9752;54.270;12.470;2023-01-28T11:29:38;9.37;;;8.67;;
19235;SDS011;9752;54.270;12.470;2023-01-28T11:34:46;10.47;;;9.63;;
19235;SDS011;9752;54.270;12.470;2023-01-28T11:39:59;9.20;;;8.70;;
19235;SDS011;9752;54.270;12.470;2023-01-28T11:45:04;9.50;;;8.70;;
19235;SDS011;9752;54.270;12.470;2023-01-28T11:50:23;10.53;;;9.77;;
19235;SDS011;9752;54.270;12.470;2023-01-28T11:55:36;11.00;;;10.13;;
19235;SDS011;9752;54.270;12.470;2023-01-28T12:00:48;10.87;;;10.03;;
19235;SDS011;9752;54.270;12.470;2023-01-28T12:06:02;11.87;;;11.00;;
19235;SDS011;9752;54.270;12.470;2023-01-28T12:11:22;12.63;;;11.60;;
19235;SDS011;9752;54.270;12.470;2023-01-28T12:16:58;11.17;;;10.20;;
19235;SDS011;9752;54.270;12.470;2023-01-28T12:27:34;12.23;;;11.47;;
19235;SDS011;9752;54.270;12.470;2023-01-28T12:38:26;12.63;;;11.90;;
19235;SDS011;9752;54.270;12.470;2023-01-28T12:43:41;12.50;;;11.70;;
19235;SDS011;9752;54.270;12.470;2023-01-28T12:48:50;12.77;;;11.97;;
19235;SDS011;9752;54.270;12.470;2023-01-28T12:53:58;13.30;;;12.53;;
19235;SDS011;9752;54.270;12.470;2023-01-28T12:59:09;12.93;;;11.97;;
19235;SDS011;9752;54.270;12.470;2023-01-28T13:04:17;13.20;;;12.00;;
19235;SDS011;9752;54.270;12.470;2023-01-28T13:09:28;12.27;;;11.57;;
19235;SDS011;9752;54.270;12.470;2023-01-28T13:14:34;12.60;;;11.70;;
19235;SDS011;9752;54.270;12.470;2023-01-28T13:19:38;12.90;;;11.73;;
19235;SDS011;9752;54.270;12.470;2023-01-28T13:24:41;13.00;;;12.00;;
19235;SDS011;9752;54.270;12.470;2023-01-28T13:29:46;14.43;;;13.10;;
19235;SDS011;9752;54.270;12.470;2023-01-28T13:34:56;14.10;;;12.90;;
19235;SDS011;9752;54.270;12.470;2023-01-28T13:40:01;13.20;;;11.90;;
19235;SDS011;9752;54.270;12.470;2023-01-28T13:45:21;13.57;;;12.30;;
19235;SDS011;9752;54.270;12.470;2023-01-28T13:50:26;13.27;;;12.20;;
19235;SDS011;9752;54.270;12.470;2023-01-28T13:55:37;12.80;;;11.80;;
19235;SDS011;9752;54.270;12.470;2023-01-28T14:00:44;14.90;;;13.83;;
19235;SDS011;9752;54.270;12.470;2023-01-28T14:06:05;13.87;;;12.77;;
19235;SDS011;9752;54.270;12.470;2023-01-28T14:11:35;15.07;;;13.77;;
19235;SDS011;9752;54.270;12.470;2023-01-28T14:16:56;13.40;;;12.30;;
19235;SDS011;9752;54.270;12.470;2023-01-28T14:22:06;14.47;;;13.27;;
19235;SDS011;9752;54.270;12.470;2023-01-28T14:27:10;15.10;;;13.57;;
19235;SDS011;9752;54.270;12.470;2023-01-28T14:32:18;14.57;;;12.87;;
19235;SDS011;9752;54.270;12.470;2023-01-28T14:37:29;13.77;;;12.67;;
19235;SDS011;9752;54.270;12.470;2023-01-28T14:42:34;13.70;;;12.23;;
19235;SDS011;9752;54.270;12.470;2023-01-28T14:47:41;13.13;;;11.77;;
19235;SDS011;9752;54.270;12.470;2023-01-28T14:58:26;15.70;;;14.03;;
19235;SDS011;9752;54.270;12.470;2023-01-28T15:03:32;14.90;;;13.50;;
19235;SDS011;9752;54.270;12.470;2023-01-28T15:08:35;15.17;;;12.57;;
19235;SDS011;9752;54.270;12.470;2023-01-28T15:13:38;14.77;;;13.30;;
19235;SDS011;9752;54.270;12.470;2023-01-28T15:18:42;16.80;;;15.03;;
19235;SDS011;9752;54.270;12.470;2023-01-28T15:23:47;17.27;;;15.67;;
19235;SDS011;9752;54.270;12.470;2023-01-28T15:28:52;15.10;;;13.67;;
19235;SDS011;9752;54.270;12.470;2023-01-28T15:33:56;15.23;;;13.97;;
19235;SDS011;9752;54.270;12.470;2023-01-28T15:39:00;15.10;;;13.80;;
19235;SDS011;9752;54.270;12.470;2023-01-28T15:44:02;15.20;;;13.90;;
19235;SDS011;9752;54.270;12.470;2023-01-28T15:49:04;15.67;;;14.37;;
19235;SDS011;9752;54.270;12.470;2023-01-28T15:54:08;14.73;;;13.43;;
19235;SDS011;9752;54.270;12.470;2023-01-28T15:59:24;14.43;;;13.33;;
19235;SDS011;9752;54.270;12.470;2023-01-28T16:04:28;14.90;;;13.67;;
19235;SDS011;9752;54.270;12.470;2023-01-28T16:09:32;16.50;;;14.03;;
19235;SDS011;9752;54.270;12.470;2023-01-28T16:14:38;19.63;;;15.10;;
19235;SDS011;9752;54.270;12.470;2023-01-28T16:19:44;16.07;;;13.37;;
19235;SDS011;9752;54.270;12.470;2023-01-28T16:24:50;14.93;;;13.57;;
19235;SDS011;9752;54.270;12.470;2023-01-28T16:29:53;14.70;;;13.30;;
19235;SDS011;9752;54.270;12.470;2023-01-28T16:34:56;15.23;;;13.80;;
19235;SDS011;9752;54.270;12.470;2023-01-28T16:40:00;15.97;;;14.43;;
19235;SDS011;9752;54.270;12.470;2023-01-28T16:45:01;16.30;;;14.57;;
19235;SDS011;9752;54.270;12.470;2023-01-28T16:50:04;16.07;;;14.37;;
19235;SDS011;9752;54.270;12.470;2023-01-28T16:55:08;22.03;;;15.20;;
19235;SDS011;9752;54.270;12.470;2023-01-28T17:00:14;16.43;;;14.73;;
19235;SDS011;9752;54.270;12.470;2023-01-28T17:05:17;18.63;;;15.53;;
19235;SDS011;9752;54.270;12.470;2023-01-28T17:10:21;24.13;;;16.80;;
19235;SDS011;9752;54.270;12.470;2023-01-28T17:15:23;28.50;;;16.53;;
19235;SDS011;9752;54.270;12.470;2023-01-28T17:20:25;20.30;;;15.07;;
19235;SDS011;9752;54.270;12.470;2023-01-28T17:25:28;20.30;;;16.33;;
19235;SDS011;9752;54.270;12.470;2023-01-28T17:30:30;24.07;;;17.43;;
19235;SDS011;9752;54.270;12.470;2023-01-28T17:35:32;21.10;;;17.00;;
19235;SDS011;9752;54.270;12.470;2023-01-28T17:40:35;19.43;;;15.40;;
19235;SDS011;9752;54.270;12.470;2023-01-28T17:45:37;18.13;;;15.50;;
19235;SDS011;9752;54.270;12.470;2023-01-28T17:50:39;21.73;;;15.83;;
19235;SDS011;9752;54.270;12.470;2023-01-28T17:55:42;18.70;;;16.43;;
19235;SDS011;9752;54.270;12.470;2023-01-28T18:00:44;21.57;;;16.97;;
19235;SDS011;9752;54.270;12.470;2023-01-28T18:05:49;23.10;;;18.13;;
19235;SDS011;9752;54.270;12.470;2023-01-28T18:10:58;23.30;;;17.03;;
19235;SDS011;9752;54.270;12.470;2023-01-28T18:16:01;21.13;;;16.73;;
19235;SDS011;9752;54.270;12.470;2023-01-28T18:21:04;20.97;;;17.90;;
19235;SDS011;9752;54.270;12.470;2023-01-28T18:26:09;28.60;;;18.73;;
19235;SDS011;9752;54.270;12.470;2023-01-28T18:31:10;23.87;;;18.20;;
19235;SDS011;9752;54.270;12.470;2023-01-28T18:36:12;23.17;;;17.93;;
19235;SDS011;9752;54.270;12.470;2023-01-28T18:41:15;27.90;;;20.40;;
19235;SDS011;9752;54.270;12.470;2023-01-28T18:46:17;24.87;;;19.03;;
19235;SDS011;9752;54.270;12.470;2023-01-28T18:51:19;23.90;;;18.67;;
19235;SDS011;9752;54.270;12.470;2023-01-28T18:56:22;27.47;;;21.03;;
19235;SDS011;9752;54.270;12.470;2023-01-28T19:01:24;25.87;;;19.10;;
19235;SDS011;9752;54.270;12.470;2023-01-28T19:06:27;32.57;;;21.67;;
19235;SDS011;9752;54.270;12.470;2023-01-28T19:11:32;30.43;;;20.60;;
19235;SDS011;9752;54.270;12.470;2023-01-28T19:16:34;31.27;;;22.60;;
19235;SDS011;9752;54.270;12.470;2023-01-28T19:21:36;30.40;;;20.60;;
19235;SDS011;9752;54.270;12.470;2023-01-28T19:26:40;35.83;;;24.83;;
19235;SDS011;9752;54.270;12.470;2023-01-28T19:31:43;35.53;;;24.37;;
19235;SDS011;9752;54.270;12.470;2023-01-28T19:36:47;46.43;;;26.40;;
19235;SDS011;9752;54.270;12.470;2023-01-28T19:41:51;35.50;;;25.63;;
19235;SDS011;9752;54.270;12.470;2023-01-28T19:46:53;41.93;;;26.83;;
19235;SDS011;9752;54.270;12.470;2023-01-28T19:51:54;44.87;;;26.70;;
19235;SDS011;9752;54.270;12.470;2023-01-28T19:56:57;49.80;;;28.17;;
19235;SDS011;9752;54.270;12.470;2023-01-28T20:01:59;47.37;;;28.90;;
19235;SDS011;9752;54.270;12.470;2023-01-28T20:07:01;51.63;;;27.90;;
19235;SDS011;9752;54.270;12.470;2023-01-28T20:12:04;51.73;;;27.03;;
19235;SDS011;9752;54.270;12.470;2023-01-28T20:17:11;58.47;;;30.43;;
19235;SDS011;9752;54.270;12.470;2023-01-28T20:22:12;61.80;;;29.77;;
19235;SDS011;9752;54.270;12.470;2023-01-28T20:27:15;55.87;;;31.73;;
19235;SDS011;9752;54.270;12.470;2023-01-28T20:32:17;56.33;;;30.53;;
19235;SDS011;9752;54.270;12.470;2023-01-28T20:37:22;59.13;;;30.37;;
19235;SDS011;9752;54.270;12.470;2023-01-28T20:42:25;58.87;;;33.67;;
19235;SDS011;9752;54.270;12.470;2023-01-28T20:47:27;57.73;;;31.70;;
19235;SDS011;9752;54.270;12.470;2023-01-28T20:52:28;60.57;;;32.80;;
19235;SDS011;9752;54.270;12.470;2023-01-28T20:57:32;84.70;;;37.53;;
19235;SDS011;9752;54.270;12.470;2023-01-28T21:02:37;76.47;;;39.80;;
19235;SDS011;9752;54.270;12.470;2023-01-28T21:07:39;80.43;;;40.10;;
19235;SDS011;9752;54.270;12.470;2023-01-28T21:12:44;74.97;;;37.90;;
19235;SDS011;9752;54.270;12.470;2023-01-28T21:17:46;59.83;;;32.87;;
19235;SDS011;9752;54.270;12.470;2023-01-28T21:22:49;66.57;;;34.93;;
19235;SDS011;9752;54.270;12.470;2023-01-28T21:27:52;74.77;;;39.00;;
19235;SDS011;9752;54.270;12.470;2023-01-28T21:32:54;67.67;;;36.33;;
19235;SDS011;9752;54.270;12.470;2023-01-28T21:37:55;65.17;;;35.70;;
19235;SDS011;9752;54.270;12.470;2023-01-28T21:42:59;79.40;;;39.70;;
19235;SDS011;9752;54.270;12.470;2023-01-28T21:48:00;72.93;;;37.63;;
19235;SDS011;9752;54.270;12.470;2023-01-28T21:53:02;80.90;;;40.10;;
19235;SDS011;9752;54.270;12.470;2023-01-28T21:58:05;84.10;;;42.13;;
19235;SDS011;9752;54.270;12.470;2023-01-28T22:03:21;83.83;;;41.10;;
19235;SDS011;9752;54.270;12.470;2023-01-28T22:08:23;78.17;;;37.33;;
19235;SDS011;9752;54.270;12.470;2023-01-28T22:13:27;83.33;;;41.17;;
19235;SDS011;9752;54.270;12.470;2023-01-28T22:18:29;92.60;;;45.83;;
19235;SDS011;9752;54.270;12.470;2023-01-28T22:23:31;81.03;;;42.77;;
19235;SDS011;9752;54.270;12.470;2023-01-28T22:28:34;95.17;;;47.17;;
19235;SDS011;9752;54.270;12.470;2023-01-28T22:33:36;88.90;;;41.90;;
19235;SDS011;9752;54.270;12.470;2023-01-28T22:38:40;87.50;;;42.10;;
19235;SDS011;9752;54.270;12.470;2023-01-28T22:43:44;86.43;;;43.17;;
19235;SDS011;9752;54.270;12.470;2023-01-28T22:48:46;82.00;;;39.63;;
19235;SDS011;9752;54.270;12.470;2023-01-28T22:53:48;76.03;;;37.03;;
19235;SDS011;9752;54.270;12.470;2023-01-28T22:58:54;89.97;;;43.10;;
19235;SDS011;9752;54.270;12.470;2023-01-28T23:03:56;89.53;;;43.43;;
19235;SDS011;9752;54.270;12.470;2023-01-28T23:08:58;113.83;;;50.97;;
19235;SDS011;9752;54.270;12.470;2023-01-28T23:14:02;98.57;;;47.23;;
19235;SDS011;9752;54.270;12.470;2023-01-28T23:19:21;76.40;;;39.87;;
19235;SDS011;9752;54.270;12.470;2023-01-28T23:24:40;87.77;;;42.13;;
19235;SDS011;9752;54.270;12.470;2023-01-28T23:29:43;82.17;;;40.63;;
19235;SDS011;9752;54.270;12.470;2023-01-28T23:34:45;85.57;;;40.10;;
19235;SDS011;9752;54.270;12.470;2023-01-28T23:39:47;76.40;;;38.53;;
19235;SDS011;9752;54.270;12.470;2023-01-28T23:44:50;81.27;;;41.00;;
19235;SDS011;9752;54.270;12.470;2023-01-28T23:49:52;85.17;;;43.33;;
19235;SDS011;9752;54.270;12.470;2023-01-28T23:54:54;92.77;;;44.73;;
19235;SDS011;9752;54.270;12.470;2023-01-28T23:59:57;104.77;;;47.47;;
